createdAt,value
2022-09-25T00:01:10.985Z,95068.97
2022-09-25T00:03:40.986Z,95070.31
2022-09-25T00:06:10.499Z,95062.78
2022-09-25T00:08:40.120Z,95068.75
2022-09-25T00:11:09.139Z,95054.69
2022-09-25T00:13:37.075Z,95058.41
2022-09-25T00:16:06.703Z,95057.41
2022-09-25T00:18:51.663Z,95055.25
2022-09-25T00:21:20.653Z,95058.00
2022-09-25T00:23:48.861Z,95045.09
2022-09-25T00:26:17.738Z,95047.44
2022-09-25T00:28:45.440Z,95040.09
2022-09-25T00:31:19.376Z,95044.06
2022-09-25T00:33:46.978Z,95035.28
2022-09-25T00:36:14.547Z,95037.66
2022-09-25T00:38:46.204Z,95030.28
2022-09-25T00:41:13.791Z,95028.13
2022-09-25T00:43:44.517Z,95027.00
2022-09-25T00:46:17.480Z,95027.25
2022-09-25T00:48:51.183Z,95031.44
2022-09-25T00:51:29.753Z,95025.34
2022-09-25T00:54:04.403Z,95025.63
2022-09-25T00:56:38.695Z,95022.38
2022-09-25T00:59:10.948Z,95024.03
2022-09-25T01:01:38.896Z,95021.75
2022-09-25T01:04:06.932Z,95023.06
2022-09-25T01:06:37.087Z,95026.56
2022-09-25T01:09:06.592Z,95038.31
2022-09-25T01:11:34.510Z,95034.16
2022-09-25T01:14:05.518Z,95034.00
2022-09-25T01:16:39.440Z,95025.16
2022-09-25T01:19:23.064Z,95023.38
2022-09-25T01:21:55.578Z,95020.81
2022-09-25T01:24:45.877Z,95025.91
2022-09-25T01:27:47.113Z,95017.88
2022-09-25T01:30:20.747Z,95022.03
2022-09-25T01:32:59.558Z,95016.06
2022-09-25T01:35:39.299Z,95015.03
2022-09-25T01:38:17.136Z,95010.56
2022-09-25T01:40:51.122Z,95006.31
2022-09-25T01:43:23.679Z,95013.63
2022-09-25T01:45:55.026Z,95012.66
2022-09-25T01:48:27.077Z,95013.25
2022-09-25T01:51:00.518Z,95004.47
2022-09-25T01:53:32.513Z,95003.34
2022-09-25T01:56:04.441Z,95000.59
2022-09-25T01:58:37.125Z,94999.66
2022-09-25T02:01:11.521Z,95003.56
2022-09-25T02:03:44.014Z,95001.44
2022-09-25T02:06:17.445Z,94998.84
2022-09-25T02:08:50.409Z,94992.69
2022-09-25T02:11:18.190Z,95000.59
2022-09-25T02:13:50.968Z,95000.59
2022-09-25T02:16:23.846Z,95010.03
2022-09-25T02:19:08.697Z,95009.22
2022-09-25T02:21:46.629Z,95014.56
2022-09-25T02:24:20.943Z,95009.81
2022-09-25T02:26:49.551Z,95014.69
2022-09-25T02:29:17.622Z,95017.97
2022-09-25T02:31:50.816Z,95006.09
2022-09-25T02:34:18.584Z,95015.16
2022-09-25T02:36:46.382Z,95014.88
2022-09-25T02:39:17.247Z,95012.88
2022-09-25T02:41:59.263Z,95031.19
2022-09-25T02:44:37.262Z,95027.41
2022-09-25T02:47:19.232Z,95024.84
2022-09-25T02:49:52.148Z,95018.75
2022-09-25T02:52:28.555Z,95012.00
2022-09-25T02:55:02.292Z,95007.75
2022-09-25T02:57:37.789Z,95002.28
2022-09-25T03:00:10.475Z,95003.47
2022-09-25T03:02:41.497Z,94996.31
2022-09-25T03:05:13.600Z,95000.78
2022-09-25T03:07:55.499Z,94999.59
2022-09-25T03:10:24.646Z,95001.81
2022-09-25T03:12:52.270Z,94996.78
2022-09-25T03:15:23.782Z,94993.47
2022-09-25T03:17:53.222Z,94989.50
2022-09-25T03:20:20.793Z,94996.06
2022-09-25T03:22:48.354Z,94990.72
2022-09-25T03:25:16.559Z,94988.13
2022-09-25T03:27:44.131Z,94980.97
2022-09-25T03:30:12.281Z,94978.38
2022-09-25T03:32:42.108Z,94971.25
2022-09-25T03:35:11.295Z,94985.41
2022-09-25T03:37:39.168Z,94975.97
2022-09-25T03:40:08.311Z,94977.59
2022-09-25T03:42:36.332Z,94977.25
2022-09-25T03:45:04.022Z,94976.41
2022-09-25T03:47:31.649Z,94977.53
2022-09-25T03:49:59.184Z,94971.38
2022-09-25T03:52:28.114Z,94974.25
2022-09-25T03:54:55.680Z,94977.09
2022-09-25T03:57:23.265Z,94969.69
2022-09-25T03:59:50.955Z,94974.00
2022-09-25T04:02:18.558Z,94972.22
2022-09-25T04:04:46.420Z,94966.88
2022-09-25T04:07:13.994Z,94967.69
2022-09-25T04:09:42.989Z,94959.88
2022-09-25T04:12:11.312Z,94961.16
2022-09-25T04:14:38.912Z,94962.63
2022-09-25T04:17:06.454Z,94957.88
2022-09-25T04:19:34.112Z,94958.31
2022-09-25T04:22:01.692Z,94958.59
2022-09-25T04:24:47.070Z,94967.38
2022-09-25T04:27:17.259Z,94958.53
2022-09-25T04:29:44.895Z,94955.78
2022-09-25T04:32:29.832Z,94962.75
2022-09-25T04:34:58.274Z,94956.59
2022-09-25T04:37:27.080Z,94964.78
2022-09-25T04:39:54.991Z,94968.97
2022-09-25T04:42:25.056Z,94969.66
2022-09-25T04:44:53.839Z,94970.31
2022-09-25T04:47:21.584Z,94961.59
2022-09-25T04:49:49.741Z,94965.31
2022-09-25T04:52:18.868Z,94962.50
2022-09-25T04:54:47.622Z,94968.75
2022-09-25T04:57:27.603Z,94969.88
2022-09-25T05:00:07.277Z,94969.09
2022-09-25T05:02:35.114Z,94977.38
2022-09-25T05:05:03.349Z,94979.09
2022-09-25T05:07:30.976Z,94979.53
2022-09-25T05:09:58.782Z,94982.97
2022-09-25T05:12:26.338Z,94978.81
2022-09-25T05:14:54.315Z,94986.41
2022-09-25T05:17:23.265Z,94985.28
2022-09-25T05:19:50.879Z,94974.88
2022-09-25T05:22:18.485Z,94968.50
2022-09-25T05:24:46.135Z,94973.19
2022-09-25T05:27:13.756Z,94969.56
2022-09-25T05:29:41.367Z,94965.38
2022-09-25T05:32:08.957Z,94965.63
2022-09-25T05:34:37.842Z,94964.00
2022-09-25T05:37:05.382Z,94974.72
2022-09-25T05:39:33.004Z,94979.03
2022-09-25T05:42:02.398Z,94975.34
2022-09-25T05:44:29.980Z,94972.69
2022-09-25T05:46:57.636Z,94976.44
2022-09-25T05:49:25.348Z,94981.03
2022-09-25T05:51:54.279Z,94977.81
2022-09-25T05:54:21.842Z,94983.03
2022-09-25T05:56:49.398Z,94981.84
2022-09-25T05:59:17.107Z,94979.00
2022-09-25T06:01:45.036Z,94977.31
2022-09-25T06:04:12.814Z,94978.53
2022-09-25T06:06:40.588Z,94975.44
2022-09-25T06:09:09.508Z,94968.88
2022-09-25T06:11:37.410Z,94972.03
2022-09-25T06:14:05.057Z,94970.59
2022-09-25T06:16:33.520Z,94986.91
2022-09-25T06:19:01.160Z,94977.72
2022-09-25T06:21:28.721Z,94980.38
2022-09-25T06:23:56.287Z,94988.63
2022-09-25T06:26:25.883Z,94984.06
2022-09-25T06:28:53.930Z,94976.44
2022-09-25T06:31:21.605Z,94976.63
2022-09-25T06:33:51.549Z,94973.31
2022-09-25T06:36:19.131Z,94985.31
2022-09-25T06:38:46.946Z,94979.19
2022-09-25T06:41:14.519Z,94975.31
2022-09-25T06:43:43.480Z,94973.56
2022-09-25T06:46:11.104Z,94974.66
2022-09-25T06:48:39.459Z,94973.38
2022-09-25T06:51:08.776Z,94976.75
2022-09-25T06:53:36.674Z,94975.72
2022-09-25T06:56:04.724Z,94967.94
2022-09-25T06:58:32.371Z,94972.69
2022-09-25T07:01:03.207Z,94970.75
2022-09-25T07:03:44.973Z,94970.75
2022-09-25T07:06:14.514Z,94983.03
2022-09-25T07:08:43.589Z,94977.72
2022-09-25T07:11:13.690Z,94971.78
2022-09-25T07:13:41.966Z,94978.91
2022-09-25T07:16:14.441Z,94971.78
2022-09-25T07:18:43.711Z,94970.66
2022-09-25T07:21:13.216Z,94975.13
2022-09-25T07:23:42.093Z,94985.50
2022-09-25T07:26:12.346Z,94983.31
2022-09-25T07:28:42.007Z,94977.47
2022-09-25T07:31:16.988Z,94975.84
2022-09-25T07:33:44.906Z,94975.41
2022-09-25T07:36:13.007Z,94979.22
2022-09-25T07:38:41.191Z,94974.94
2022-09-25T07:41:11.583Z,94967.28
2022-09-25T07:43:39.426Z,94975.16
2022-09-25T07:46:07.895Z,94974.81
2022-09-25T07:48:37.161Z,94978.91
2022-09-25T07:51:06.391Z,94980.78
2022-09-25T07:53:34.004Z,94985.50
2022-09-25T07:56:06.486Z,94986.44
2022-09-25T07:58:36.110Z,94980.19
2022-09-25T08:01:06.016Z,94984.81
2022-09-25T08:03:34.082Z,94987.53
2022-09-25T08:06:04.786Z,94986.03
2022-09-25T08:08:34.264Z,94990.34
2022-09-25T08:11:02.894Z,94988.47
2022-09-25T08:13:30.473Z,94988.78
2022-09-25T08:15:58.185Z,94982.22
2022-09-25T08:18:25.830Z,94987.13
2022-09-25T08:20:53.474Z,94991.13
2022-09-25T08:23:23.744Z,94987.19
2022-09-25T08:25:51.386Z,94984.59
2022-09-25T08:28:18.957Z,94985.44
2022-09-25T08:30:47.333Z,94983.66
2022-09-25T08:33:15.890Z,94982.34
2022-09-25T08:35:44.542Z,94979.88
2022-09-25T08:38:12.274Z,94980.59
2022-09-25T08:40:52.625Z,94986.13
2022-09-25T08:43:24.205Z,94989.38
2022-09-25T08:46:11.525Z,94986.44
2022-09-25T08:49:06.253Z,94993.16
2022-09-25T08:51:37.449Z,94996.72
2022-09-25T08:54:06.702Z,94994.84
2022-09-25T08:56:37.525Z,94998.44
2022-09-25T08:59:12.088Z,94997.34
2022-09-25T09:01:47.152Z,94994.13
2022-09-25T09:04:20.287Z,94995.53
2022-09-25T09:07:24.712Z,94996.00
2022-09-25T09:09:45.408Z,94995.44
2022-09-25T09:12:18.451Z,94987.50
2022-09-25T09:14:48.587Z,94981.88
2022-09-25T09:17:19.814Z,94975.22
2022-09-25T09:19:50.033Z,94972.88
2022-09-25T09:22:23.918Z,94979.59
2022-09-25T09:25:03.686Z,94975.97
2022-09-25T09:27:59.398Z,94986.34
2022-09-25T09:30:36.015Z,94980.44
2022-09-25T09:33:22.507Z,94979.59
2022-09-25T09:36:06.865Z,94979.03
2022-09-25T09:38:44.940Z,94973.38
2022-09-25T09:41:23.408Z,94976.88
2022-09-25T09:44:04.059Z,94977.34
2022-09-25T09:46:44.708Z,94966.44
2022-09-25T09:49:18.311Z,94966.16
2022-09-25T09:51:52.797Z,94963.56
2022-09-25T09:54:26.921Z,94966.63
2022-09-25T09:56:57.650Z,94965.81
2022-09-25T09:59:31.466Z,94967.28
2022-09-25T10:02:06.078Z,94964.38
2022-09-25T10:04:37.443Z,94963.25
2022-09-25T10:07:08.244Z,94960.97
2022-09-25T10:09:37.192Z,94953.41
2022-09-25T10:12:11.401Z,94963.03
2022-09-25T10:14:44.116Z,94959.25
2022-09-25T10:17:15.181Z,94955.97
2022-09-25T10:19:49.675Z,94955.44
2022-09-25T10:22:20.263Z,94954.78
2022-09-25T10:24:53.481Z,94955.63
2022-09-25T10:27:30.025Z,94945.59
2022-09-25T10:30:18.024Z,94946.63
2022-09-25T10:32:57.338Z,94951.66
2022-09-25T10:35:28.216Z,94943.00
2022-09-25T10:37:58.268Z,94952.84
2022-09-25T10:40:29.412Z,94953.63
2022-09-25T10:43:06.349Z,94951.19
2022-09-25T10:45:37.062Z,94943.84
2022-09-25T10:48:42.977Z,94955.81
2022-09-25T10:51:12.184Z,94946.97
2022-09-25T10:53:39.769Z,94947.47
2022-09-25T10:56:12.213Z,94944.69
2022-09-25T10:58:43.608Z,94938.63
2022-09-25T11:01:14.313Z,94942.06
2022-09-25T11:03:49.964Z,94937.78
2022-09-25T11:06:22.009Z,94933.06
2022-09-25T11:08:56.258Z,94942.22
2022-09-25T11:11:26.930Z,94937.63
2022-09-25T11:13:58.103Z,94928.78
2022-09-25T11:16:47.408Z,94937.13
2022-09-25T11:19:17.356Z,94932.88
2022-09-25T11:21:51.895Z,94924.22
2022-09-25T11:24:24.723Z,94921.94
2022-09-25T11:26:59.124Z,94916.88
2022-09-25T11:29:36.276Z,94922.28
2022-09-25T11:32:11.014Z,94921.63
2022-09-25T11:34:57.511Z,94915.06
2022-09-25T11:37:32.291Z,94914.91
2022-09-25T11:40:30.566Z,94913.25
2022-09-25T11:43:04.051Z,94914.25
2022-09-25T11:45:36.695Z,94907.06
2022-09-25T11:48:12.978Z,94903.78
2022-09-25T11:50:49.742Z,94905.56
2022-09-25T11:53:33.513Z,94903.13
2022-09-25T11:56:18.703Z,94907.19
2022-09-25T11:58:57.874Z,94903.06
2022-09-25T12:01:33.893Z,94903.59
2022-09-25T12:04:17.042Z,94899.81
2022-09-25T12:07:01.446Z,94900.81
2022-09-25T12:09:40.996Z,94890.34
2022-09-25T12:12:17.361Z,94894.06
2022-09-25T12:14:52.662Z,94895.88
2022-09-25T12:17:26.585Z,94888.31
2022-09-25T12:20:05.499Z,94891.44
2022-09-25T12:22:44.593Z,94884.94
2022-09-25T12:25:35.018Z,94879.88
2022-09-25T12:28:12.611Z,94881.59
2022-09-25T12:30:50.289Z,94874.75
2022-09-25T12:33:29.670Z,94888.16
2022-09-25T12:36:03.947Z,94877.00
2022-09-25T12:38:41.831Z,94877.13
2022-09-25T12:41:17.993Z,94869.97
2022-09-25T12:43:52.975Z,94879.47
2022-09-25T12:46:27.003Z,94876.53
2022-09-25T12:49:02.063Z,94873.59
2022-09-25T12:51:35.942Z,94873.94
2022-09-25T12:54:14.846Z,94876.88
2022-09-25T12:56:51.968Z,94869.81
2022-09-25T12:59:25.155Z,94873.41
2022-09-25T13:01:58.730Z,94872.09
2022-09-25T13:04:49.064Z,94873.09
2022-09-25T13:07:24.878Z,94880.44
2022-09-25T13:09:52.488Z,94873.59
2022-09-25T13:12:33.309Z,94870.53
2022-09-25T13:15:06.784Z,94871.13
2022-09-25T13:17:34.598Z,94861.69
2022-09-25T13:20:41.088Z,94864.38
2022-09-25T13:23:15.011Z,94861.97
2022-09-25T13:25:46.422Z,94871.84
2022-09-25T13:28:21.407Z,94868.25
2022-09-25T13:31:08.081Z,94873.81
2022-09-25T13:33:45.150Z,94871.72
2022-09-25T13:36:46.406Z,94874.00
2022-09-25T13:39:46.654Z,94873.38
2022-09-25T13:42:22.274Z,94880.91
2022-09-25T13:44:52.603Z,94877.78
2022-09-25T13:47:57.374Z,94885.16
2022-09-25T13:50:32.210Z,94884.16
2022-09-25T13:53:18.593Z,94882.34
2022-09-25T13:56:14.408Z,94882.84
2022-09-25T13:59:02.015Z,94878.25
2022-09-25T14:01:36.278Z,94879.88
2022-09-25T14:04:10.775Z,94875.97
2022-09-25T14:06:41.530Z,94883.66
2022-09-25T14:09:12.392Z,94882.38
2022-09-25T14:11:45.428Z,94882.06
2022-09-25T14:14:31.347Z,94883.00
2022-09-25T14:17:02.546Z,94881.38
2022-09-25T14:19:33.100Z,94882.38
2022-09-25T14:22:03.668Z,94879.25
2022-09-25T14:24:32.254Z,94863.41
2022-09-25T14:27:02.644Z,94870.09
2022-09-25T14:29:32.735Z,94866.84
2022-09-25T14:32:50.366Z,94867.31
2022-09-25T14:35:25.319Z,94860.63
2022-09-25T14:38:36.771Z,94861.59
2022-09-25T14:41:22.647Z,94865.69
2022-09-25T14:44:04.645Z,94868.47
2022-09-25T14:46:34.477Z,94868.16
2022-09-25T14:49:09.386Z,94864.50
2022-09-25T14:51:40.730Z,94855.69
2022-09-25T14:54:12.464Z,94855.06
2022-09-25T14:56:40.391Z,94863.09
2022-09-25T14:59:13.666Z,94866.19
2022-09-25T15:01:47.835Z,94863.41
2022-09-25T15:04:26.868Z,94859.31
2022-09-25T15:07:01.188Z,94863.72
2022-09-25T15:09:37.183Z,94853.75
2022-09-25T15:12:18.733Z,94863.56
2022-09-25T15:15:02.075Z,94853.41
2022-09-25T15:17:31.187Z,94845.25
2022-09-25T15:20:01.138Z,94856.03
2022-09-25T15:22:33.270Z,94859.16
2022-09-25T15:25:04.216Z,94856.72
2022-09-25T15:27:32.490Z,94855.72
2022-09-25T15:30:03.032Z,94860.00
2022-09-25T15:32:39.389Z,94854.75
2022-09-25T15:35:18.172Z,94853.59
2022-09-25T15:37:46.361Z,94853.91
2022-09-25T15:40:25.714Z,94858.31
2022-09-25T15:42:53.743Z,94851.63
2022-09-25T15:45:42.180Z,94850.81
2022-09-25T15:48:21.837Z,94854.75
2022-09-25T15:50:50.023Z,94857.66
2022-09-25T15:53:28.312Z,94850.31
2022-09-25T15:56:06.851Z,94853.56
2022-09-25T15:58:44.010Z,94844.03
2022-09-25T16:01:32.872Z,94845.31
2022-09-25T16:04:19.718Z,94849.88
2022-09-25T16:06:49.875Z,94855.81
2022-09-25T16:09:31.257Z,94861.38
2022-09-25T16:12:20.302Z,94857.31
2022-09-25T16:14:48.716Z,94857.44
2022-09-25T16:17:23.794Z,94860.72
2022-09-25T16:20:07.157Z,94866.31
2022-09-25T16:22:40.778Z,94866.97
2022-09-25T16:25:21.111Z,94865.78
2022-09-25T16:27:49.383Z,94872.16
2022-09-25T16:30:18.835Z,94862.03
2022-09-25T16:32:50.489Z,94869.25
2022-09-25T16:35:25.896Z,94863.88
2022-09-25T16:37:54.502Z,94863.38
2022-09-25T16:40:33.569Z,94867.31
2022-09-25T16:43:02.355Z,94870.28
2022-09-25T16:45:34.111Z,94870.59
2022-09-25T16:48:29.173Z,94863.19
2022-09-25T16:50:59.894Z,94861.28
2022-09-25T16:53:28.080Z,94861.75
2022-09-25T16:55:56.858Z,94860.25
2022-09-25T16:58:24.700Z,94857.13
2022-09-25T17:00:52.421Z,94858.13
2022-09-25T17:03:21.835Z,94864.34
2022-09-25T17:05:49.633Z,94864.50
2022-09-25T17:08:19.677Z,94855.69
2022-09-25T17:10:50.565Z,94876.63
2022-09-25T17:13:20.285Z,94862.41
2022-09-25T17:15:47.971Z,94874.69
2022-09-25T17:18:21.097Z,94872.91
2022-09-25T17:20:52.436Z,94868.66
2022-09-25T17:23:22.108Z,94877.47
2022-09-25T17:25:58.243Z,94872.91
2022-09-25T17:28:28.164Z,94880.22
2022-09-25T17:30:55.826Z,94871.72
2022-09-25T17:33:24.270Z,94870.94
2022-09-25T17:35:56.375Z,94868.47
2022-09-25T17:38:24.033Z,94871.56
2022-09-25T17:40:53.345Z,94870.09
2022-09-25T17:43:21.269Z,94866.50
2022-09-25T17:45:50.657Z,94862.94
2022-09-25T17:48:24.070Z,94875.19
2022-09-25T17:50:54.360Z,94875.66
2022-09-25T17:53:23.712Z,94869.28
2022-09-25T17:55:53.915Z,94869.28
2022-09-25T17:58:23.068Z,94876.66
2022-09-25T18:00:51.539Z,94878.78
2022-09-25T18:03:19.784Z,94876.66
2022-09-25T18:05:48.480Z,94871.56
2022-09-25T18:08:17.908Z,94884.97
2022-09-25T18:10:46.362Z,94886.13
2022-09-25T18:13:17.238Z,94892.81
2022-09-25T18:15:48.896Z,94892.66
2022-09-25T18:18:16.622Z,94897.72
2022-09-25T18:21:05.662Z,94900.31
2022-09-25T18:23:38.623Z,94904.06
2022-09-25T18:26:09.187Z,94904.91
2022-09-25T18:28:36.795Z,94903.13
2022-09-25T18:31:04.451Z,94904.72
2022-09-25T18:33:32.106Z,94912.00
2022-09-25T18:35:59.905Z,94912.47
2022-09-25T18:38:27.550Z,94906.91
2022-09-25T18:40:56.619Z,94911.38
2022-09-25T18:43:24.214Z,94905.22
2022-09-25T18:45:52.073Z,94906.53
2022-09-25T18:48:19.847Z,94909.44
2022-09-25T18:50:47.493Z,94907.81
2022-09-25T18:53:15.251Z,94915.84
2022-09-25T18:55:43.710Z,94915.31
2022-09-25T18:58:13.709Z,94910.91
2022-09-25T19:00:42.047Z,94915.19
2022-09-25T19:03:09.697Z,94910.53
2022-09-25T19:05:37.391Z,94911.00
2022-09-25T19:08:05.067Z,94909.88
2022-09-25T19:10:36.055Z,94911.34
2022-09-25T19:13:04.178Z,94911.25
2022-09-25T19:15:33.311Z,94912.06
2022-09-25T19:18:00.944Z,94914.53
2022-09-25T19:20:28.935Z,94921.41
2022-09-25T19:22:56.525Z,94916.81
2022-09-25T19:25:24.167Z,94925.66
2022-09-25T19:27:51.789Z,94919.91
2022-09-25T19:30:19.352Z,94922.50
2022-09-25T19:32:48.709Z,94914.84
2022-09-25T19:35:16.336Z,94924.25
2022-09-25T19:37:43.947Z,94924.16
2022-09-25T19:40:29.373Z,94929.22
2022-09-25T19:42:57.827Z,94932.94
2022-09-25T19:45:25.932Z,94933.94
2022-09-25T19:47:54.954Z,94939.47
2022-09-25T19:50:22.687Z,94933.88
2022-09-25T19:52:51.389Z,94936.59
2022-09-25T19:55:19.675Z,94932.00
2022-09-25T19:57:47.583Z,94932.66
2022-09-25T20:00:17.222Z,94936.25
2022-09-25T20:02:46.431Z,94932.00
2022-09-25T20:05:17.121Z,94945.06
2022-09-25T20:07:44.761Z,94941.97
2022-09-25T20:10:12.403Z,94932.47
2022-09-25T20:12:39.942Z,94933.44
2022-09-25T20:15:08.577Z,94934.91
2022-09-25T20:17:36.195Z,94938.44
2022-09-25T20:20:03.923Z,94939.84
2022-09-25T20:22:33.119Z,94940.94
2022-09-25T20:25:00.655Z,94941.09
2022-09-25T20:27:28.300Z,94942.88
2022-09-25T20:29:55.896Z,94936.19
2022-09-25T20:32:23.841Z,94942.03
2022-09-25T20:34:51.580Z,94940.97
2022-09-25T20:37:19.224Z,94935.56
2022-09-25T20:39:48.130Z,94941.28
2022-09-25T20:42:17.040Z,94947.03
2022-09-25T20:44:44.639Z,94942.31
2022-09-25T20:47:12.336Z,94948.97
2022-09-25T20:49:39.962Z,94949.44
2022-09-25T20:52:09.931Z,94950.72
2022-09-25T20:54:39.103Z,94946.00
2022-09-25T20:57:08.906Z,94945.81
2022-09-25T20:59:36.578Z,94950.47
2022-09-25T21:02:04.959Z,94943.88
2022-09-25T21:04:32.798Z,94944.81
2022-09-25T21:07:01.581Z,94942.00
2022-09-25T21:09:29.638Z,94943.78
2022-09-25T21:11:57.752Z,94946.00
2022-09-25T21:14:28.336Z,94936.69
2022-09-25T21:16:57.129Z,94944.63
2022-09-25T21:19:24.819Z,94946.50
2022-09-25T21:21:52.543Z,94937.28
2022-09-25T21:24:21.677Z,94937.66
2022-09-25T21:26:49.710Z,94932.44
2022-09-25T21:29:18.021Z,94940.94
2022-09-25T21:31:50.156Z,94940.41
2022-09-25T21:34:18.964Z,94944.22
2022-09-25T21:36:46.988Z,94945.41
2022-09-25T21:39:14.767Z,94932.38
2022-09-25T21:41:43.213Z,94940.78
2022-09-25T21:44:13.989Z,94935.72
2022-09-25T21:46:41.666Z,94944.66
2022-09-25T21:49:17.002Z,94936.84
2022-09-25T21:51:45.682Z,94945.63
2022-09-25T21:54:13.932Z,94940.09
2022-09-25T21:56:41.636Z,94938.84
2022-09-25T21:59:09.696Z,94935.72
2022-09-25T22:01:39.836Z,94936.38
2022-09-25T22:04:12.209Z,94934.22
2022-09-25T22:06:41.919Z,94932.72
2022-09-25T22:09:11.591Z,94937.28
2022-09-25T22:11:40.012Z,94941.63
2022-09-25T22:14:13.297Z,94936.09
2022-09-25T22:16:44.405Z,94936.53
2022-09-25T22:19:16.595Z,94936.19
2022-09-25T22:21:46.219Z,94939.25
2022-09-25T22:24:13.889Z,94931.44
2022-09-25T22:26:43.394Z,94941.19
2022-09-25T22:29:12.046Z,94932.53
2022-09-25T22:31:42.866Z,94938.94
2022-09-25T22:34:20.424Z,94935.66
2022-09-25T22:36:48.495Z,94932.09
2022-09-25T22:39:17.953Z,94930.31
2022-09-25T22:41:46.862Z,94936.19
2022-09-25T22:44:14.559Z,94935.88
2022-09-25T22:46:42.239Z,94941.19
2022-09-25T22:49:10.245Z,94935.75
2022-09-25T22:51:39.187Z,94933.66
2022-09-25T22:54:07.084Z,94924.28
2022-09-25T22:56:35.719Z,94931.50
2022-09-25T22:59:05.901Z,94919.72
2022-09-25T23:01:37.830Z,94923.59
2022-09-25T23:04:07.814Z,94919.06
2022-09-25T23:06:36.709Z,94916.59
2022-09-25T23:09:07.450Z,94917.84
2022-09-25T23:11:35.386Z,94909.53
2022-09-25T23:14:05.762Z,94908.63
2022-09-25T23:16:34.363Z,94905.97
2022-09-25T23:19:02.989Z,94908.56
2022-09-25T23:21:32.367Z,94910.47
2022-09-25T23:24:01.963Z,94914.91
2022-09-25T23:26:31.428Z,94910.41
2022-09-25T23:29:00.124Z,94915.41
2022-09-25T23:31:28.203Z,94909.91
2022-09-25T23:33:56.230Z,94910.34
2022-09-25T23:36:25.712Z,94905.88
2022-09-25T23:38:55.611Z,94912.19
2022-09-25T23:41:25.099Z,94905.53
2022-09-25T23:43:55.461Z,94902.16
2022-09-25T23:46:24.960Z,94896.13
2022-09-25T23:48:53.733Z,94901.94
2022-09-25T23:51:22.880Z,94904.97
2022-09-25T23:53:51.149Z,94898.44
2022-09-25T23:56:20.966Z,94895.84
2022-09-25T23:58:49.499Z,94898.38
